Time;durP1;ratioP1;P1;durP2;ratioP2;P2;SDS_P1;SDS_P2;PMS_P1;PMS_P2;Temp;Humidity;BMP_temperature;BMP_pressure;BME280_temperature;BME280_humidity;BME280_pressure;Samples;Min_cycle;Max_cycle;Signal;HPM_P1;HPM_P2
2022/04/07 00:00:45;;;;;;;0.80;0.80;;;10.60;97.40;10.10;96870.00;;;;5035846;28;20212;-71
2022/04/07 00:03:12;;;;;;;0.63;0.63;;;10.70;96.10;10.00;96873.00;;;;5039901;28;20216;-70
2022/04/07 00:05:38;;;;;;;4.57;1.53;;;10.60;95.70;10.10;96875.00;;;;5035025;28;20231;-71
2022/04/07 00:08:06;;;;;;;0.83;0.83;;;10.70;94.90;10.20;96869.00;;;;5034844;28;20350;-71
2022/04/07 00:10:33;;;;;;;0.50;0.50;;;10.70;94.30;10.20;96867.00;;;;5034565;28;20185;-71
2022/04/07 00:13:00;;;;;;;0.53;0.53;;;10.80;95.40;10.20;96866.00;;;;5034598;28;20251;-71
2022/04/07 00:15:27;;;;;;;0.53;0.53;;;10.80;93.50;10.20;96858.00;;;;5034511;28;20204;-73
2022/04/07 00:17:53;;;;;;;0.60;0.60;;;10.80;94.00;9.90;96847.00;;;;5034597;28;20192;-70
2022/04/07 00:20:20;;;;;;;0.50;0.50;;;10.70;94.60;10.00;96846.00;;;;5034526;28;20215;-71
2022/04/07 00:22:50;;;;;;;0.50;0.50;;;10.70;95.10;10.00;96844.00;;;;5034406;28;20211;-70
2022/04/07 00:25:17;;;;;;;0.93;0.90;;;10.60;95.00;10.00;96833.00;;;;5034406;28;20270;-71
2022/04/07 00:27:44;;;;;;;0.43;0.43;;;10.70;94.40;10.00;96828.00;;;;5016955;28;20730;-71
2022/04/07 00:30:15;;;;;;;0.60;0.60;;;10.60;93.60;9.90;96824.00;;;;5034227;28;20207;-70
2022/04/07 00:32:45;;;;;;;0.70;0.70;;;10.50;93.20;9.90;96828.00;;;;5034081;28;20239;-70
2022/04/07 00:35:11;;;;;;;0.50;0.50;;;10.50;92.90;9.90;96819.00;;;;5034171;28;20207;-70
2022/04/07 00:37:39;;;;;;;0.70;0.70;;;10.60;91.40;9.90;96811.00;;;;5017263;28;20629;-70
2022/04/07 00:40:09;;;;;;;0.50;0.50;;;10.50;90.30;10.10;96818.00;;;;5016598;28;20237;-70
2022/04/07 00:42:45;;;;;;;0.60;0.60;;;10.70;88.70;9.90;96816.00;;;;5034067;28;20683;-70
2022/04/07 00:45:11;;;;;;;0.60;0.60;;;10.60;87.10;10.20;96818.00;;;;5033596;28;20200;-70
2022/04/07 00:47:38;;;;;;;0.73;0.73;;;10.70;85.90;10.30;96818.00;;;;5033911;28;20307;-70
2022/04/07 00:50:06;;;;;;;0.50;0.50;;;10.80;82.30;10.10;96798.00;;;;5033985;28;20723;-70
2022/04/07 00:52:33;;;;;;;0.60;0.60;;;10.80;82.10;10.10;96795.00;;;;5035792;28;20278;-70
2022/04/07 00:55:01;;;;;;;0.67;0.67;;;10.80;82.90;10.00;96803.00;;;;5037582;28;20203;-71
2022/04/07 00:57:29;;;;;;;0.50;0.50;;;10.60;82.00;10.10;96800.00;;;;5016743;28;20208;-70
2022/04/07 00:59:56;;;;;;;0.50;0.50;;;10.70;82.40;10.00;96803.00;;;;5033768;28;20250;-70
2022/04/07 01:02:26;;;;;;;0.80;0.80;;;10.70;82.70;10.00;96800.00;;;;5033997;28;20197;-70
2022/04/07 01:04:52;;;;;;;0.53;0.53;;;10.70;82.80;10.00;96790.00;;;;5033776;28;20236;-70
2022/04/07 01:07:19;;;;;;;0.60;0.60;;;10.60;82.80;10.00;96786.00;;;;5033721;28;20622;-70
2022/04/07 01:09:46;;;;;;;0.60;0.60;;;10.60;80.70;10.00;96780.00;;;;5033631;28;20646;-71
2022/04/07 01:12:13;;;;;;;0.80;0.80;;;10.70;81.00;9.90;96774.00;;;;5016252;28;20644;-70
2022/04/07 01:14:54;;;;;;;0.50;0.50;;;10.60;79.60;9.80;96775.00;;;;5033585;28;20709;-72
2022/04/07 01:17:21;;;;;;;0.50;0.50;;;10.40;79.20;9.80;96778.00;;;;5033655;28;20200;-70
2022/04/07 01:19:48;;;;;;;0.50;0.50;;;10.40;79.00;9.80;96774.00;;;;5033496;28;20224;-70
2022/04/07 01:22:14;;;;;;;0.57;0.57;;;10.50;78.30;9.90;96768.00;;;;5016112;28;20358;-71
2022/04/07 01:24:42;;;;;;;0.50;0.50;;;10.50;78.30;9.70;96767.00;;;;5033719;28;20258;-70
2022/04/07 01:27:09;;;;;;;0.50;0.50;;;10.50;78.40;9.70;96759.00;;;;5033451;28;20351;-71
2022/04/07 01:29:35;;;;;;;0.50;0.50;;;10.40;78.70;9.80;96757.00;;;;5033422;28;20270;-70
2022/04/07 01:32:10;;;;;;;1.00;1.00;;;10.50;78.50;9.70;96758.00;;;;5035593;28;20228;-70
2022/04/07 01:34:41;;;;;;;0.50;0.50;;;10.40;79.30;9.60;96750.00;;;;5016844;28;20200;-70
2022/04/07 01:37:09;;;;;;;0.50;0.50;;;10.30;80.00;9.60;96755.00;;;;5033432;28;20204;-71
2022/04/07 01:39:39;;;;;;;0.53;0.53;;;10.20;82.00;9.40;96760.00;;;;5033266;28;20228;-70
2022/04/07 01:42:12;;;;;;;0.77;0.77;;;10.20;81.90;9.30;96765.00;;;;5033363;28;20215;-70
2022/04/07 01:44:46;;;;;;;0.50;0.50;;;10.00;83.40;9.30;96765.00;;;;5033282;28;20207;-71
2022/04/07 01:47:17;;;;;;;0.70;0.70;;;10.10;83.70;9.40;96754.00;;;;5033219;28;20628;-71
2022/04/07 01:49:57;;;;;;;0.50;0.50;;;10.10;84.70;9.40;96747.00;;;;5033241;28;20209;-71
2022/04/07 01:52:25;;;;;;;0.57;0.57;;;10.10;85.80;9.40;96750.00;;;;5033086;28;20216;-70
2022/04/07 01:54:53;;;;;;;0.50;0.50;;;10.00;86.90;9.50;96754.00;;;;5033314;28;20284;-71
2022/04/07 01:57:24;;;;;;;0.60;0.60;;;10.10;86.50;9.50;96747.00;;;;5033629;28;20628;-71
2022/04/07 01:59:51;;;;;;;0.50;0.50;;;10.10;86.50;9.50;96729.00;;;;5036685;28;20691;-71
2022/04/07 02:02:17;;;;;;;0.50;0.50;;;10.20;85.50;9.50;96735.00;;;;5036565;28;20628;-71
2022/04/07 02:04:55;;;;;;;0.60;0.60;;;10.10;85.50;9.50;96740.00;;;;5036592;28;20278;-71
2022/04/07 02:07:30;;;;;;;0.60;0.60;;;10.10;83.70;9.50;96736.00;;;;5018959;28;20235;-71
2022/04/07 02:09:59;;;;;;;0.50;0.50;;;10.20;83.00;9.50;96735.00;;;;5036509;28;20202;-72
2022/04/07 02:12:29;;;;;;;0.57;0.57;;;10.10;82.70;9.40;96734.00;;;;5036088;28;20376;-72
2022/04/07 02:14:59;;;;;;;2.00;1.00;;;10.10;83.20;9.40;96739.00;;;;5036396;28;20652;-70
2022/04/07 02:17:28;;;;;;;0.70;0.70;;;10.10;83.40;9.50;96742.00;;;;5036564;28;20274;-71
2022/04/07 02:19:58;;;;;;;0.50;0.50;;;10.20;82.40;9.50;96736.00;;;;5018794;28;20228;-70
2022/04/07 02:22:28;;;;;;;0.50;0.50;;;10.10;82.00;9.60;96735.00;;;;5036280;28;20200;-70
2022/04/07 02:24:56;;;;;;;0.60;0.60;;;10.20;79.60;9.60;96742.00;;;;5036176;28;20228;-71
2022/04/07 02:27:23;;;;;;;0.60;0.60;;;10.30;78.50;9.60;96732.00;;;;5036078;28;20312;-70
2022/04/07 02:29:50;;;;;;;0.53;0.53;;;10.20;78.90;9.60;96723.00;;;;5035944;28;20225;-71
2022/04/07 02:32:17;;;;;;;2.90;1.17;;;10.20;78.60;9.90;96718.00;;;;5036004;28;20255;-72
2022/04/07 02:34:44;;;;;;;0.50;0.50;;;10.50;77.90;9.80;96724.00;;;;5018493;28;20227;-71
2022/04/07 02:37:11;;;;;;;0.83;0.83;;;10.40;78.80;9.80;96719.00;;;;5018662;28;20197;-70
2022/04/07 02:39:37;;;;;;;0.53;0.53;;;10.40;80.30;9.70;96727.00;;;;5036174;28;20278;-71
2022/04/07 02:42:05;;;;;;;0.60;0.60;;;10.40;79.70;9.60;96724.00;;;;5036102;28;20283;-71
2022/04/07 02:44:32;;;;;;;0.73;0.73;;;10.30;81.70;9.60;96730.00;;;;5035759;28;20220;-71
2022/04/07 02:46:59;;;;;;;0.67;0.67;;;10.30;83.30;9.40;96725.00;;;;5035796;28;20304;-70
2022/04/07 02:49:25;;;;;;;0.60;0.60;;;10.20;84.60;9.40;96725.00;;;;5035853;28;20231;-71
2022/04/07 02:51:54;;;;;;;0.57;0.57;;;10.10;85.40;9.20;96722.00;;;;5018353;28;20255;-71
2022/04/07 02:54:23;;;;;;;0.53;0.53;;;10.00;85.90;9.20;96721.00;;;;5018217;28;20648;-70
2022/04/07 02:56:50;;;;;;;0.50;0.50;;;9.90;89.20;9.10;96711.00;;;;5035651;28;20193;-71
2022/04/07 02:59:18;;;;;;;0.60;0.60;;;9.80;89.10;9.10;96704.00;;;;5035547;28;20220;-71
2022/04/07 03:01:45;;;;;;;0.40;0.40;;;9.80;91.10;9.20;96715.00;;;;5018406;28;20299;-70
2022/04/07 03:04:13;;;;;;;0.50;0.50;;;9.80;92.10;9.10;96711.00;;;;5035620;28;20228;-71
2022/04/07 03:06:39;;;;;;;0.50;0.50;;;9.80;92.20;9.00;96706.00;;;;5035512;28;20221;-70
2022/04/07 03:09:06;;;;;;;0.70;0.70;;;9.70;93.10;9.10;96707.00;;;;5035494;28;20703;-70
2022/04/07 03:11:35;;;;;;;0.50;0.50;;;9.70;93.00;9.30;96701.00;;;;5017955;28;20690;-70
2022/04/07 03:14:01;;;;;;;0.50;0.50;;;9.90;91.80;9.20;96701.00;;;;5035519;28;20207;-72
2022/04/07 03:16:28;;;;;;;0.60;0.60;;;9.90;92.50;9.10;96703.00;;;;5018069;28;20193;-71
2022/04/07 03:18:55;;;;;;;0.60;0.60;;;9.90;92.40;9.20;96695.00;;;;5035265;28;20627;-71
2022/04/07 03:21:25;;;;;;;0.60;0.60;;;9.90;92.80;9.10;96703.00;;;;5035379;28;20193;-71
2022/04/07 03:23:51;;;;;;;0.50;0.50;;;9.80;93.00;9.10;96690.00;;;;5035331;28;20224;-71
2022/04/07 03:26:18;;;;;;;0.60;0.60;;;9.70;93.00;9.20;96687.00;;;;5035375;28;20224;-70
2022/04/07 03:28:44;;;;;;;0.60;0.60;;;9.80;92.10;9.10;96685.00;;;;5017932;28;20524;-70
2022/04/07 03:31:11;;;;;;;0.60;0.60;;;9.70;92.80;9.00;96674.00;;;;5017643;28;20295;-71
2022/04/07 03:33:40;;;;;;;0.50;0.50;;;9.70;92.90;9.00;96666.00;;;;5035386;28;20266;-70
2022/04/07 03:36:06;;;;;;;0.50;0.50;;;9.70;92.40;9.20;96675.00;;;;5035177;28;20208;-71
2022/04/07 03:38:35;;;;;;;0.67;0.67;;;9.80;92.30;9.30;96661.00;;;;5035036;28;20274;-71
2022/04/07 03:41:02;;;;;;;0.50;0.50;;;9.80;91.80;9.20;96665.00;;;;5035113;28;20197;-71
2022/04/07 03:43:28;;;;;;;0.67;0.67;;;9.80;92.40;9.20;96651.00;;;;5017816;28;20205;-71
2022/04/07 03:45:55;;;;;;;0.50;0.50;;;9.80;91.20;9.30;96657.00;;;;5036990;28;20659;-71
2022/04/07 03:48:22;;;;;;;1.00;1.00;;;9.90;91.10;9.40;96654.00;;;;5034962;28;20236;-71
2022/04/07 03:50:48;;;;;;;0.50;0.50;;;9.90;90.00;9.20;96618.00;;;;5034935;28;20223;-71
2022/04/07 03:53:15;;;;;;;0.60;0.60;;;9.90;90.20;9.20;96653.00;;;;5034903;28;20266;-70
2022/04/07 03:55:42;;;;;;;0.50;0.50;;;9.80;89.30;9.30;96647.00;;;;5021979;28;20239;-71
2022/04/07 03:58:09;;;;;;;0.50;0.50;;;9.90;88.90;9.20;96645.00;;;;5035873;28;20220;-70
2022/04/07 04:00:35;;;;;;;0.70;0.70;;;9.90;88.40;9.20;96629.00;;;;5017633;28;20875;-71
2022/04/07 04:03:02;;;;;;;0.47;0.47;;;9.80;88.20;9.30;96631.00;;;;5034758;28;20288;-71
2022/04/07 04:05:28;;;;;;;0.50;0.50;;;9.90;87.70;9.40;96625.00;;;;5034669;28;20248;-71
2022/04/07 04:07:56;;;;;;;0.50;0.50;;;9.90;86.90;9.20;96617.00;;;;5034658;28;20281;-70
2022/04/07 04:10:23;;;;;;;0.60;0.60;;;9.90;86.80;9.30;96618.00;;;;5034646;28;20275;-71
2022/04/07 04:12:51;;;;;;;0.50;0.50;;;9.90;86.90;9.20;96610.00;;;;5034590;28;20624;-71
2022/04/07 04:15:18;;;;;;;0.50;0.50;;;9.90;86.70;9.00;96611.00;;;;5034881;28;20239;-70
2022/04/07 04:17:44;;;;;;;0.53;0.53;;;9.70;86.70;9.20;96612.00;;;;5035297;28;20215;-70
2022/04/07 04:20:12;;;;;;;0.60;0.60;;;9.80;86.60;9.10;96620.00;;;;5033788;28;20216;-71
2022/04/07 04:22:39;;;;;;;0.60;0.60;;;9.70;86.20;9.10;96606.00;;;;5035201;28;20215;-70
2022/04/07 04:25:08;;;;;;;0.73;0.73;;;9.80;86.50;9.00;96575.00;;;;5035450;28;20216;-70
2022/04/07 04:27:34;;;;;;;1.17;0.73;;;9.70;86.70;9.00;96605.00;;;;5038483;28;20233;-70
2022/04/07 04:30:06;;;;;;;0.60;0.60;;;9.70;86.90;9.10;96611.00;;;;5036151;28;20280;-70
2022/04/07 04:32:33;;;;;;;0.50;0.50;;;9.70;87.00;9.20;96610.00;;;;5035158;28;20197;-70
2022/04/07 04:34:59;;;;;;;0.50;0.50;;;9.80;85.70;9.10;96608.00;;;;5034579;28;20231;-71
2022/04/07 04:37:26;;;;;;;0.50;0.50;;;9.70;86.80;9.10;96609.00;;;;5034543;28;20227;-70
2022/04/07 04:39:53;;;;;;;0.40;0.40;;;9.80;86.30;9.10;96601.00;;;;5034231;28;20238;-70
2022/04/07 04:42:22;;;;;;;0.70;0.70;;;9.80;85.90;9.00;96591.00;;;;5034107;28;20223;-70
2022/04/07 04:44:49;;;;;;;0.50;0.50;;;9.70;86.60;9.10;96591.00;;;;5034151;28;20228;-70
2022/04/07 04:47:18;;;;;;;0.50;0.50;;;9.70;86.80;9.20;96596.00;;;;5033953;28;20219;-70
2022/04/07 04:49:44;;;;;;;1.03;0.87;;;9.80;85.70;9.10;96590.00;;;;5016462;28;20290;-71
2022/04/07 04:52:12;;;;;;;0.70;0.70;;;9.80;85.10;9.10;96588.00;;;;5033892;28;20710;-70
2022/04/07 04:54:39;;;;;;;0.70;0.70;;;9.80;85.40;9.20;96546.00;;;;5016626;28;20219;-71
2022/04/07 04:57:06;;;;;;;0.60;0.60;;;9.80;84.70;9.30;96549.00;;;;5034195;28;20203;-70
2022/04/07 04:59:34;;;;;;;0.50;0.50;;;9.90;83.30;9.40;96573.00;;;;5033989;28;20288;-69
2022/04/07 05:02:01;;;;;;;0.60;0.60;;;10.00;82.20;9.30;96583.00;;;;5034658;28;20515;-72
2022/04/07 05:04:28;;;;;;;0.50;0.50;;;10.00;82.70;9.50;96568.00;;;;5019052;28;20232;-72
2022/04/07 05:06:58;;;;;;;0.73;0.73;;;10.10;81.30;9.40;96563.00;;;;5035266;28;20592;-72
2022/04/07 05:09:24;;;;;;;0.57;0.57;;;10.10;81.40;9.30;96563.00;;;;5034785;28;20619;-73
2022/04/07 05:11:51;;;;;;;0.60;0.60;;;10.00;81.70;9.40;96571.00;;;;5033784;28;20235;-72
2022/04/07 05:14:18;;;;;;;0.50;0.50;;;10.00;81.10;9.40;96570.00;;;;5033786;28;20201;-69
2022/04/07 05:16:44;;;;;;;0.63;0.63;;;10.10;81.80;9.50;96566.00;;;;5033855;28;20197;-70
2022/04/07 05:19:11;;;;;;;0.60;0.60;;;10.10;81.20;9.40;96568.00;;;;5033643;28;20231;-73
2022/04/07 05:21:38;;;;;;;0.50;0.50;;;10.00;81.00;9.30;96569.00;;;;5033746;28;20315;-71
2022/04/07 05:24:07;;;;;;;0.50;0.50;;;10.10;81.70;9.30;96589.00;;;;5033781;28;20628;-70
2022/04/07 05:26:34;;;;;;;0.50;0.50;;;10.00;82.60;9.40;96565.00;;;;5033512;28;20220;-70
2022/04/07 05:29:00;;;;;;;0.50;0.50;;;10.10;82.00;9.20;96567.00;;;;5016220;28;20216;-72
2022/04/07 05:31:27;;;;;;;0.77;0.77;;;9.90;83.60;9.30;96562.00;;;;5033391;28;20224;-71
2022/04/07 05:33:54;;;;;;;0.50;0.50;;;10.00;82.90;9.30;96553.00;;;;5036229;28;20200;-70
2022/04/07 05:36:20;;;;;;;0.57;0.57;;;10.00;83.50;9.30;96558.00;;;;5037160;28;20279;-71
2022/04/07 05:38:47;;;;;;;0.60;0.60;;;10.00;83.80;9.40;96552.00;;;;5036971;28;20615;-71
2022/04/07 05:41:14;;;;;;;0.50;0.50;;;10.00;83.70;9.40;96537.00;;;;5037151;28;20271;-70
2022/04/07 05:43:40;;;;;;;0.50;0.50;;;10.00;83.10;9.40;96532.00;;;;5037199;28;20635;-70
2022/04/07 05:46:07;;;;;;;0.50;0.50;;;10.10;82.20;9.40;96563.00;;;;5036800;28;20201;-70
2022/04/07 05:48:36;;;;;;;0.50;0.50;;;10.10;82.00;9.70;96541.00;;;;5036962;28;20213;-70
2022/04/07 05:51:05;;;;;;;0.60;0.60;;;10.20;81.20;9.70;96538.00;;;;5036933;28;20232;-70
2022/04/07 05:53:32;;;;;;;0.50;0.50;;;10.30;80.10;9.70;96531.00;;;;5036808;28;20212;-70
2022/04/07 05:55:59;;;;;;;0.60;0.60;;;10.30;79.60;9.60;96540.00;;;;5036645;28;20250;-70
2022/04/07 05:58:26;;;;;;;0.40;0.40;;;10.20;78.20;9.70;96519.00;;;;5036431;28;20247;-71
2022/04/07 06:00:53;;;;;;;0.50;0.50;;;10.30;78.20;9.90;96477.00;;;;5036818;28;20219;-71
2022/04/07 06:03:22;;;;;;;0.50;0.50;;;10.40;78.10;10.00;96496.00;;;;5036631;28;20652;-71
2022/04/07 06:05:52;;;;;;;0.60;0.60;;;10.50;76.20;10.10;96480.00;;;;5019156;28;20233;-71
2022/04/07 06:08:19;;;;;;;0.50;0.50;;;10.70;75.70;10.20;96462.00;;;;5036621;28;20201;-71
2022/04/07 06:10:45;;;;;;;0.70;0.70;;;10.70;74.00;10.20;96451.00;;;;5036661;28;20484;-71
2022/04/07 06:13:14;;;;;;;0.57;0.57;;;10.80;73.50;10.20;96451.00;;;;5019256;28;20243;-70
2022/04/07 06:15:41;;;;;;;0.50;0.50;;;10.80;72.00;10.40;96486.00;;;;5036458;28;20207;-71
2022/04/07 06:18:08;;;;;;;0.60;0.60;;;10.90;72.20;10.20;96470.00;;;;5036246;28;20367;-72
2022/04/07 06:20:35;;;;;;;0.40;0.40;;;10.90;71.50;10.20;96497.00;;;;5036120;28;20279;-71
2022/04/07 06:23:01;;;;;;;0.57;0.57;;;10.80;71.10;10.40;96476.00;;;;5036147;28;20216;-71
2022/04/07 06:25:28;;;;;;;0.40;0.40;;;10.90;71.10;10.50;96477.00;;;;5018813;28;20248;-71
2022/04/07 06:27:55;;;;;;;0.50;0.50;;;11.00;71.30;10.40;96465.00;;;;5035953;28;20362;-71
2022/04/07 06:30:22;;;;;;;4.67;0.90;;;11.00;70.00;10.40;96460.00;;;;5036033;28;20290;-72
2022/04/07 06:32:49;;;;;;;0.50;0.50;;;11.00;69.50;10.50;96466.00;;;;5036224;28;20198;-71
2022/04/07 06:35:18;;;;;;;0.60;0.60;;;11.10;68.20;10.60;96457.00;;;;5036216;28;20263;-72
2022/04/07 06:37:49;;;;;;;0.60;0.60;;;11.10;69.30;10.50;96469.00;;;;5035877;28;20221;-70
2022/04/07 06:40:20;;;;;;;0.57;0.57;;;11.10;69.20;10.60;96461.00;;;;5036058;28;20243;-71
2022/04/07 06:42:47;;;;;;;0.57;0.57;;;11.20;68.80;10.70;96443.00;;;;5035779;28;20196;-71
2022/04/07 06:45:13;;;;;;;0.50;0.50;;;11.30;67.70;10.60;96455.00;;;;5035648;28;20208;-69
2022/04/07 06:47:41;;;;;;;0.80;0.80;;;11.20;68.40;10.60;96456.00;;;;5035909;28;20307;-70
2022/04/07 06:50:11;;;;;;;0.60;0.60;;;11.20;67.70;10.40;96468.00;;;;5035738;28;20320;-70
2022/04/07 06:52:39;;;;;;;0.60;0.60;;;11.10;68.60;10.60;96459.00;;;;5036021;28;20204;-72
2022/04/07 06:55:07;;;;;;;0.50;0.50;;;11.10;68.60;10.50;96452.00;;;;5036049;28;20216;-71
2022/04/07 06:57:50;;;;;;;0.60;0.60;;;11.10;68.40;10.50;96454.00;;;;5018255;28;20259;-72
2022/04/07 07:00:22;;;;;;;0.70;0.70;;;11.10;68.90;10.50;96442.00;;;;5035719;28;20199;-71
2022/04/07 07:02:52;;;;;;;0.50;0.50;;;11.20;67.50;10.50;96441.00;;;;5018267;28;20664;-71
2022/04/07 07:05:19;;;;;;;0.80;0.80;;;11.20;67.30;10.70;96437.00;;;;5018087;28;20243;-71
2022/04/07 07:07:46;;;;;;;0.50;0.50;;;11.20;67.70;11.00;96443.00;;;;5035482;28;20221;-71
2022/04/07 07:10:20;;;;;;;0.50;0.50;;;11.50;67.20;10.80;96407.00;;;;5035655;28;20224;-71
2022/04/07 07:12:46;;;;;;;0.60;0.60;;;11.40;66.20;11.00;96425.00;;;;5035542;28;20197;-71
2022/04/07 07:15:16;;;;;;;0.60;0.60;;;11.50;65.60;10.80;96416.00;;;;5017786;28;20255;-72
2022/04/07 07:17:42;;;;;;;0.50;0.50;;;11.40;66.70;10.80;96441.00;;;;5035494;28;20331;-71
2022/04/07 07:20:12;;;;;;;0.40;0.40;;;11.40;65.50;10.70;96419.00;;;;5018131;28;20521;-70
2022/04/07 07:22:40;;;;;;;0.50;0.50;;;11.30;66.10;10.90;96400.00;;;;5035254;28;20209;-71
2022/04/07 07:25:11;;;;;;;0.60;0.60;;;11.50;66.90;10.80;96410.00;;;;5035296;28;20616;-71
2022/04/07 07:27:39;;;;;;;0.60;0.60;;;11.40;65.80;11.00;96398.00;;;;5035323;28;20304;-71
2022/04/07 07:30:09;;;;;;;0.40;0.40;;;11.50;66.70;11.10;96395.00;;;;5035216;28;20240;-70
2022/04/07 07:32:36;;;;;;;0.50;0.50;;;11.70;64.90;11.00;96406.00;;;;5035148;28;20288;-70
2022/04/07 07:35:03;;;;;;;0.50;0.50;;;11.60;65.30;11.20;96389.00;;;;5035033;28;20228;-71
2022/04/07 07:37:31;;;;;;;0.50;0.50;;;11.70;65.50;11.10;96396.00;;;;5035079;28;20266;-70
2022/04/07 07:40:02;;;;;;;0.53;0.53;;;11.70;64.10;11.30;96394.00;;;;5017776;28;20636;-71
2022/04/07 07:42:28;;;;;;;0.50;0.50;;;11.80;64.60;11.30;96388.00;;;;5035446;28;20276;-71
2022/04/07 07:44:55;;;;;;;0.60;0.60;;;11.80;64.00;11.10;96378.00;;;;5034986;28;20235;-71
2022/04/07 07:47:21;;;;;;;0.50;0.50;;;11.70;63.80;11.30;96365.00;;;;5034879;28;20687;-71
2022/04/07 07:49:48;;;;;;;0.50;0.50;;;11.90;64.20;11.60;96360.00;;;;5034956;28;20283;-71
2022/04/07 07:52:14;;;;;;;0.60;0.60;;;12.00;63.20;11.40;96366.00;;;;5035060;28;20283;-71
2022/04/07 07:54:44;;;;;;;0.70;0.70;;;12.00;63.10;11.30;96346.00;;;;5034145;28;20228;-70
2022/04/07 07:57:10;;;;;;;0.80;0.80;;;11.90;64.50;11.30;96357.00;;;;5034421;28;20226;-72
2022/04/07 07:59:37;;;;;;;0.50;0.50;;;12.00;63.90;11.50;96346.00;;;;5034893;28;20209;-71
2022/04/07 08:02:05;;;;;;;0.60;0.60;;;12.10;63.40;11.50;96359.00;;;;5034870;28;20193;-70
2022/04/07 08:04:32;;;;;;;0.50;0.50;;;12.10;62.90;11.30;96370.00;;;;5017719;28;20634;-71
2022/04/07 08:06:58;;;;;;;0.70;0.70;;;12.00;64.00;11.40;96346.00;;;;5017038;28;20267;-71
2022/04/07 08:09:25;;;;;;;0.70;0.70;;;12.10;63.70;11.50;96349.00;;;;5034710;28;20290;-70
2022/04/07 08:11:52;;;;;;;0.93;0.93;;;12.10;62.80;11.50;96335.00;;;;5034561;28;20224;-70
2022/04/07 08:14:19;;;;;;;0.50;0.50;;;12.10;62.90;11.60;96335.00;;;;5034493;28;20255;-71
2022/04/07 08:16:45;;;;;;;0.40;0.40;;;12.10;62.20;11.70;96330.00;;;;5034836;28;20201;-72
2022/04/07 08:19:12;;;;;;;0.70;0.70;;;12.30;63.10;11.60;96312.00;;;;5034391;28;20212;-71
2022/04/07 08:21:39;;;;;;;0.50;0.50;;;12.30;61.80;11.80;96331.00;;;;5017432;28;20558;-71
2022/04/07 08:24:06;;;;;;;0.50;0.50;;;12.40;60.80;11.90;96293.00;;;;5034513;28;20215;-70
2022/04/07 08:26:34;;;;;;;0.50;0.50;;;12.40;61.30;12.10;96300.00;;;;5034235;28;20228;-72
2022/04/07 08:29:02;;;;;;;0.70;0.70;;;12.60;60.70;12.20;96321.00;;;;5034388;28;20220;-71
2022/04/07 08:31:28;;;;;;;0.50;0.50;;;12.70;59.70;12.10;96309.00;;;;5034348;28;20211;-71
2022/04/07 08:33:55;;;;;;;0.47;0.47;;;12.70;59.40;12.00;96300.00;;;;5034288;28;20179;-71
2022/04/07 08:36:21;;;;;;;0.50;0.50;;;12.60;61.20;11.90;96295.00;;;;5017170;28;20200;-71
2022/04/07 08:38:48;;;;;;;0.50;0.50;;;12.50;64.20;11.80;96306.00;;;;5034208;28;20225;-71
2022/04/07 08:41:14;;;;;;;0.50;0.50;;;12.40;63.40;11.70;96302.00;;;;5034633;28;20259;-72
2022/04/07 08:43:43;;;;;;;0.60;0.60;;;12.30;63.50;11.80;96292.00;;;;5035124;28;20729;-72
2022/04/07 08:46:12;;;;;;;0.50;0.50;;;12.40;64.10;11.90;96297.00;;;;5041225;28;20226;-71
2022/04/07 08:48:42;;;;;;;0.57;0.57;;;12.40;63.70;12.20;96278.00;;;;5039682;28;20438;-71
2022/04/07 08:51:10;;;;;;;0.40;0.40;;;12.60;63.20;12.20;96237.00;;;;5039297;28;20466;-71
2022/04/07 08:53:38;;;;;;;0.50;0.50;;;12.70;60.90;12.20;96269.00;;;;5034308;28;20212;-71
2022/04/07 08:56:07;;;;;;;0.45;0.45;;;12.80;59.70;12.10;96256.00;;;;5033085;28;20429;-72
2022/04/07 08:58:34;;;;;;;0.40;0.40;;;12.70;61.10;12.40;96267.00;;;;5033973;28;20232;-71
2022/04/07 09:01:02;;;;;;;0.50;0.50;;;12.90;59.20;12.40;96262.00;;;;5034490;28;20715;-71
2022/04/07 09:03:30;;;;;;;0.60;0.60;;;12.90;58.80;12.50;96269.00;;;;5036192;28;20212;-72
2022/04/07 09:06:01;;;;;;;0.50;0.50;;;13.00;58.90;12.60;96260.00;;;;5017030;28;20201;-72
2022/04/07 09:08:33;;;;;;;0.50;0.50;;;13.10;58.20;12.40;96260.00;;;;5033775;28;20296;-71
2022/04/07 09:11:02;;;;;;;0.50;0.50;;;13.00;58.30;12.60;96285.00;;;;5033607;28;20315;-71
2022/04/07 09:13:34;;;;;;;0.50;0.50;;;13.10;57.80;12.60;96279.00;;;;5016297;28;20286;-70
2022/04/07 09:16:03;;;;;;;0.52;0.52;;;;;12.50;96264.00;;;;5032743;28;20877;-72
2022/04/07 09:18:35;;;;;;;0.50;0.50;;;13.10;56.00;12.50;96244.00;;;;5032578;28;20896;-71
2022/04/07 09:21:02;;;;;;;0.60;0.60;;;13.10;56.30;12.60;96276.00;;;;5032897;28;20429;-72
2022/04/07 09:23:37;;;;;;;0.50;0.50;;;13.10;56.40;12.50;96262.00;;;;5033427;28;20224;-70
2022/04/07 09:26:04;;;;;;;0.50;0.50;;;13.10;58.00;12.10;96247.00;;;;5033569;28;20220;-70
2022/04/07 09:28:32;;;;;;;0.43;0.43;;;12.80;58.90;12.30;96260.00;;;;5033005;28;20263;-71
2022/04/07 09:31:00;;;;;;;0.50;0.50;;;12.90;59.40;12.30;96261.00;;;;5016004;28;20307;-70
2022/04/07 09:33:30;;;;;;;0.50;0.50;;;12.90;59.70;12.10;96246.00;;;;5033506;28;20231;-71
2022/04/07 09:36:03;;;;;;;0.60;0.60;;;12.70;61.30;12.00;96250.00;;;;5033458;28;20223;-72
2022/04/07 09:38:31;;;;;;;0.50;0.50;;;12.60;63.70;12.00;96236.00;;;;5033407;28;20217;-70
2022/04/07 09:41:09;;;;;;;0.52;0.52;;;12.60;65.10;11.90;96235.00;;;;5033165;28;20889;-71
2022/04/07 09:43:46;;;;;;;0.50;0.50;;;12.50;65.50;12.20;96237.00;;;;5032440;28;20544;-71
2022/04/07 09:46:14;;;;;;;0.50;0.50;;;12.70;66.40;12.20;96227.00;;;;5033448;28;20238;-72
2022/04/07 09:49:03;;;;;;;0.50;0.50;;;12.70;64.60;12.10;96211.00;;;;5033106;28;20611;-70
2022/04/07 09:51:36;;;;;;;0.40;0.40;;;12.70;63.50;12.40;96191.00;;;;5014519;28;20433;-70
2022/04/07 09:54:03;;;;;;;0.50;0.50;;;12.90;61.80;12.70;96215.00;;;;5015740;28;20279;-73
2022/04/07 09:56:30;;;;;;;0.60;0.60;;;13.10;62.00;12.90;96200.00;;;;5033125;28;20303;-72
2022/04/07 09:59:01;;;;;;;0.50;0.50;;;13.40;61.80;12.70;96195.00;;;;5033137;28;20215;-72
2022/04/07 10:01:29;;;;;;;0.50;0.50;;;13.30;60.30;12.70;96163.00;;;;5033193;28;20262;-72
2022/04/07 10:03:59;;;;;;;0.50;0.50;;;13.30;61.40;12.70;96193.00;;;;5033046;28;20228;-72
2022/04/07 10:06:30;;;;;;;0.50;0.50;;;13.30;60.60;12.90;96164.00;;;;5033101;28;20210;-72
2022/04/07 10:09:02;;;;;;;0.50;0.50;;;13.20;57.70;12.80;96243.00;;;;5032310;28;20441;-72
2022/04/07 10:11:30;;;;;;;0.70;0.70;;;13.20;56.20;12.70;96166.00;;;;5031945;28;20429;-71
2022/04/07 10:14:00;;;;;;;0.40;0.40;;;13.10;56.60;12.90;96213.00;;;;5014425;28;20889;-72
2022/04/07 10:16:28;;;;;;;0.50;0.50;;;13.30;56.60;12.70;96148.00;;;;5015345;28;20555;-72
2022/04/07 10:19:01;;;;;;;0.47;0.47;;;13.30;57.70;12.90;96180.00;;;;5016865;28;20280;-72
2022/04/07 10:21:41;;;;;;;0.50;0.50;;;13.30;56.50;12.80;96126.00;;;;5035188;28;20435;-72
2022/04/07 10:24:30;;;;;;;0.60;0.60;;;13.50;56.30;13.10;96123.00;;;;5034977;28;20429;-72
2022/04/07 10:27:01;;;;;;;0.50;0.50;;;13.50;57.20;13.20;96128.00;;;;5035203;28;20538;-75
2022/04/07 10:29:29;;;;;;;0.40;0.40;;;13.70;56.20;13.20;96107.00;;;;5035172;28;20524;-74
2022/04/07 10:32:21;;;;;;;0.50;0.50;;;13.70;55.60;13.40;96108.00;;;;5035538;28;20432;-72
2022/04/07 10:34:57;;;;;;;0.47;0.47;;;13.90;55.10;14.00;96103.00;;;;5036266;28;20711;-73
2022/04/07 10:37:46;;;;;;;0.40;0.40;;;14.40;54.70;13.90;96113.00;;;;5036037;28;20208;-73
2022/04/07 10:40:51;;;;;;;0.47;0.47;;;;;13.60;96102.00;;;;5034866;28;20434;-73
2022/04/07 10:43:22;;;;;;;0.50;0.50;;;;;13.50;96093.00;;;;4937042;29;20203;-73
2022/04/07 10:45:51;;;;;;;0.80;0.80;;;14.10;53.40;13.60;96081.00;;;;5022221;28;20659;-73
2022/04/07 10:48:28;;;;;;;0.57;0.57;;;14.10;53.10;13.70;96118.00;;;;5035845;28;20228;-72
2022/04/07 10:50:58;;;;;;;0.50;0.50;;;14.20;52.60;13.90;96084.00;;;;5035984;28;20200;-72
2022/04/07 10:53:31;;;;;;;0.50;0.50;;;14.40;53.90;13.90;96082.00;;;;5035798;28;20516;-71
2022/04/07 10:56:07;;;;;;;0.50;0.50;;;14.40;52.50;14.00;96075.00;;;;5035879;28;20239;-72
2022/04/07 10:58:46;;;;;;;0.53;0.53;;;14.60;52.40;14.20;96075.00;;;;5035748;28;20197;-72
2022/04/07 11:01:52;;;;;;;0.50;0.50;;;14.70;53.00;14.30;96074.00;;;;5035686;28;20307;-71
2022/04/07 11:05:00;;;;;;;0.50;0.50;;;14.70;52.80;13.80;96061.00;;;;5035770;28;20275;-72
2022/04/07 11:07:36;;;;;;;0.50;0.50;;;14.30;51.90;13.90;96101.00;;;;5035764;28;20224;-72